Terminal Aerodrome Forecast
Issued by NWS

Home | Current Version | Previous Version | Text Only | Print | Product List | Glossary On
Versions: 1 2 3 4 5 6 7 8 9 10 11 12 13 14 15 16 17 18 19
000
FTUS41 KCAR 260736 AAC
TAFPQI
TAF AMD
KPQI 260736Z 2608/2706 25009KT 6SM -SHRA SCT004 OVC010
     FM260900 21012G20KT 3SM -SHRA OVC010 WS020/28030KT
     FM261030 26011G18KT 2SM -SHSN OVC020
     FM261200 28012G19KT P6SM OVC060
     FM261500 27018G28KT P6SM BKN025
     FM261800 27018G27KT P6SM BKN035
     FM270000 28012G20KT P6SM SCT200=

USA.gov is the U.S. government's official web portal to all federal, state and local government web resources and services.